Time,TemperatureF,DewpointF,PressureIn,WindDirection,WindDirectionDegrees,WindSpeedMPH,WindSpeedGustMPH,Humidity,HourlyPrecipIn,Conditions,Clouds,dailyrainin,SoftwareType,DateUTC
2013-11-04 00:03:00,27.0,23.9,30.48,WSW,247,2.7,-999.0,88,-99.99,,,0.00,Acu-Link.com,2013-11-04 05:03:00,
2013-11-04 00:19:00,26.6,24.1,30.48,SW,225,2.7,-999.0,90,-99.99,,,0.00,Acu-Link.com,2013-11-04 05:19:00,
2013-11-04 00:34:00,26.6,24.1,30.48,SW,225,2.7,-999.0,90,-99.99,,,0.00,Acu-Link.com,2013-11-04 05:34:00,
2013-11-04 00:49:00,26.2,23.7,30.49,SW,225,2.2,-999.0,90,-99.99,,,0.00,Acu-Link.com,2013-11-04 05:49:00,
2013-11-04 01:04:00,26.4,23.9,30.49,SW,225,2.2,-999.0,90,-99.99,,,0.00,Acu-Link.com,2013-11-04 06:04:00,
2013-11-04 01:19:00,26.6,24.1,30.49,WSW,247,2.2,-999.0,90,-99.99,,,0.00,Acu-Link.com,2013-11-04 06:19:00,
2013-11-04 01:34:00,26.6,24.1,30.49,WSW,247,2.7,-999.0,90,-99.99,,,0.00,Acu-Link.com,2013-11-04 06:34:00,
2013-11-04 01:49:00,26.6,24.6,30.51,SW,225,1.7,-999.0,92,-99.99,,,0.00,Acu-Link.com,2013-11-04 06:49:00,
2013-11-04 02:05:00,26.6,23.8,30.51,West,270,0.0,-999.0,89,-99.99,,,0.00,Acu-Link.com,2013-11-04 07:05:00,
2013-11-04 02:20:00,27.1,24.8,30.51,SW,225,2.7,-999.0,91,-99.99,,,0.00,Acu-Link.com,2013-11-04 07:20:00,
2013-11-04 02:35:00,27.0,25.5,30.51,SW,225,2.2,-999.0,94,-99.99,,,0.00,Acu-Link.com,2013-11-04 07:35:00,
2013-11-04 02:50:00,26.8,25.3,30.51,WSW,247,2.2,-999.0,94,-99.99,,,0.00,Acu-Link.com,2013-11-04 07:50:00,
2013-11-04 03:05:00,26.4,25.4,30.52,WSW,247,2.2,-999.0,96,-99.99,,,0.00,Acu-Link.com,2013-11-04 08:05:00,
2013-11-04 03:20:00,25.9,24.9,30.52,SW,225,2.7,-999.0,96,-99.99,,,0.00,Acu-Link.com,2013-11-04 08:20:00,
2013-11-04 03:36:00,25.7,25.0,30.53,WSW,247,2.7,-999.0,97,-99.99,,,0.00,Acu-Link.com,2013-11-04 08:36:00,
2013-11-04 03:51:00,25.3,24.6,30.53,SW,225,2.2,-999.0,97,-99.99,,,0.00,Acu-Link.com,2013-11-04 08:51:00,
2013-11-04 04:06:00,25.2,24.5,30.54,WSW,247,2.2,-999.0,97,-99.99,,,0.00,Acu-Link.com,2013-11-04 09:06:00,
2013-11-04 04:21:00,25.0,24.3,30.54,WSW,247,2.7,-999.0,97,-99.99,,,0.00,Acu-Link.com,2013-11-04 09:21:00,
2013-11-04 04:36:00,24.8,23.8,30.54,WSW,247,2.2,-999.0,96,-99.99,,,0.00,Acu-Link.com,2013-11-04 09:36:00,
2013-11-04 04:51:00,24.8,23.8,30.54,WSW,247,2.7,-999.0,96,-99.99,,,0.00,Acu-Link.com,2013-11-04 09:51:00,
2013-11-04 05:06:00,24.8,24.1,30.55,WSW,247,2.2,-999.0,97,-99.99,,,0.00,Acu-Link.com,2013-11-04 10:06:00,
2013-11-04 05:22:00,24.6,23.9,30.55,SW,225,2.7,-999.0,97,-99.99,,,0.00,Acu-Link.com,2013-11-04 10:22:00,
2013-11-04 05:37:00,23.7,23.5,30.55,SW,225,2.7,-999.0,99,-99.99,,,0.00,Acu-Link.com,2013-11-04 10:37:00,
2013-11-04 05:52:00,23.7,23.5,30.56,WSW,247,2.7,-999.0,99,-99.99,,,0.00,Acu-Link.com,2013-11-04 10:52:00,
2013-11-04 06:07:00,23.4,23.2,30.56,West,270,2.7,-999.0,99,-99.99,,,0.00,Acu-Link.com,2013-11-04 11:07:00,
2013-11-04 06:22:00,23.2,23.0,30.56,WSW,247,2.2,-999.0,99,-99.99,,,0.00,Acu-Link.com,2013-11-04 11:22:00,
2013-11-04 06:37:00,23.0,22.8,30.57,WSW,247,2.7,-999.0,99,-99.99,,,0.00,Acu-Link.com,2013-11-04 11:37:00,
2013-11-04 06:52:00,23.0,22.8,30.57,SW,225,2.7,-999.0,99,-99.99,,,0.00,Acu-Link.com,2013-11-04 11:52:00,
2013-11-04 07:07:00,23.2,23.0,30.57,SW,225,2.7,-999.0,99,-99.99,,,0.00,Acu-Link.com,2013-11-04 12:07:00,
2013-11-04 07:23:00,24.3,23.8,30.59,WSW,247,2.2,-999.0,98,-99.99,,,0.00,Acu-Link.com,2013-11-04 12:23:00,
2013-11-04 07:38:00,26.2,24.5,30.59,West,270,2.2,-999.0,93,-99.99,,,0.00,Acu-Link.com,2013-11-04 12:38:00,
2013-11-04 07:53:00,27.7,25.4,30.59,WSW,247,0.0,-999.0,91,-99.99,,,0.00,Acu-Link.com,2013-11-04 12:53:00,
2013-11-04 08:08:00,30.6,26.9,30.59,SW,225,1.7,-999.0,86,-99.99,,,0.00,Acu-Link.com,2013-11-04 13:08:00,
2013-11-04 08:23:00,30.9,26.4,30.59,ENE,67,2.2,-999.0,83,-99.99,,,0.00,Acu-Link.com,2013-11-04 13:23:00,
2013-11-04 08:38:00,33.3,25.3,30.60,ENE,67,2.7,-999.0,72,-99.99,,,0.00,Acu-Link.com,2013-11-04 13:38:00,
2013-11-04 08:53:00,34.5,26.1,30.60,East,90,1.7,-999.0,71,-99.99,,,0.00,Acu-Link.com,2013-11-04 13:53:00,
2013-11-04 09:08:00,34.9,24.0,30.61,ESE,112,2.2,-999.0,64,-99.99,,,0.00,Acu-Link.com,2013-11-04 14:08:00,
2013-11-04 09:24:00,36.0,25.8,30.60,East,90,1.1,-999.0,66,-99.99,,,0.00,Acu-Link.com,2013-11-04 14:24:00,
2013-11-04 09:39:00,36.7,26.4,30.60,ESE,112,2.7,-999.0,66,-99.99,,,0.00,Acu-Link.com,2013-11-04 14:39:00,
2013-11-04 09:54:00,37.2,24.6,30.60,East,90,5.3,-999.0,60,-99.99,,,0.00,Acu-Link.com,2013-11-04 14:54:00,
2013-11-04 10:09:00,37.6,24.6,30.59,East,90,3.2,-999.0,59,-99.99,,,0.00,Acu-Link.com,2013-11-04 15:09:00,
2013-11-04 10:24:00,37.8,23.1,30.59,East,90,5.3,-999.0,55,-99.99,,,0.00,Acu-Link.com,2013-11-04 15:24:00,
2013-11-04 10:39:00,38.7,24.8,30.59,East,90,9.4,-999.0,57,-99.99,,,0.00,Acu-Link.com,2013-11-04 15:39:00,
2013-11-04 10:54:00,38.8,24.5,30.59,East,90,5.3,-999.0,56,-99.99,,,0.00,Acu-Link.com,2013-11-04 15:54:00,
2013-11-04 11:09:00,38.5,25.4,30.59,East,90,3.2,-999.0,59,-99.99,,,0.00,Acu-Link.com,2013-11-04 16:09:00,
2013-11-04 11:24:00,38.8,24.9,30.59,East,90,5.8,-999.0,57,-99.99,,,0.00,Acu-Link.com,2013-11-04 16:24:00,
2013-11-04 11:40:00,38.8,23.6,30.59,West,270,4.2,-999.0,54,-99.99,,,0.00,Acu-Link.com,2013-11-04 16:40:00,
2013-11-04 11:55:00,40.5,25.2,30.58,ESE,112,2.2,-999.0,54,-99.99,,,0.00,Acu-Link.com,2013-11-04 16:55:00,
2013-11-04 12:10:00,40.8,24.6,30.57,WSW,247,3.2,-999.0,52,-99.99,,,0.00,Acu-Link.com,2013-11-04 17:10:00,
2013-11-04 12:25:00,41.2,25.8,30.56,West,270,2.2,-999.0,54,-99.99,,,0.00,Acu-Link.com,2013-11-04 17:25:00,
2013-11-04 12:40:00,40.8,22.6,30.56,ENE,67,4.7,-999.0,48,-99.99,,,0.00,Acu-Link.com,2013-11-04 17:40:00,
2013-11-04 12:55:00,41.0,22.8,30.56,SSW,202,3.7,-999.0,48,-99.99,,,0.00,Acu-Link.com,2013-11-04 17:55:00,
2013-11-04 13:11:00,41.2,21.5,30.55,ESE,112,2.7,-999.0,45,-99.99,,,0.00,Acu-Link.com,2013-11-04 18:11:00,
2013-11-04 13:26:00,40.6,20.4,30.55,West,270,3.2,-999.0,44,-99.99,,,0.00,Acu-Link.com,2013-11-04 18:26:00,
2013-11-04 13:41:00,40.1,20.5,30.54,NNE,22,1.1,-999.0,45,-99.99,,,0.00,Acu-Link.com,2013-11-04 18:41:00,
2013-11-04 13:56:00,41.7,21.4,30.54,SW,225,3.7,-999.0,44,-99.99,,,0.00,Acu-Link.com,2013-11-04 18:56:00,
2013-11-04 14:11:00,41.2,22.0,30.53,ESE,112,7.8,-999.0,46,-99.99,,,0.00,Acu-Link.com,2013-11-04 19:11:00,
2013-11-04 14:26:00,40.1,22.5,30.52,East,90,7.8,-999.0,49,-99.99,,,0.00,Acu-Link.com,2013-11-04 19:26:00,
2013-11-04 14:41:00,40.3,23.2,30.52,East,90,5.3,-999.0,50,-99.99,,,0.00,Acu-Link.com,2013-11-04 19:41:00,
2013-11-04 14:56:00,41.0,21.3,30.52,East,90,7.3,-999.0,45,-99.99,,,0.00,Acu-Link.com,2013-11-04 19:56:00,
2013-11-04 15:12:00,40.8,22.2,30.52,ENE,67,4.7,-999.0,47,-99.99,,,0.00,Acu-Link.com,2013-11-04 20:12:00,
2013-11-04 15:27:00,40.3,22.7,30.53,NE,45,2.2,-999.0,49,-99.99,,,0.00,Acu-Link.com,2013-11-04 20:27:00,
2013-11-04 15:42:00,40.1,23.0,30.52,East,90,2.7,-999.0,50,-99.99,,,0.00,Acu-Link.com,2013-11-04 20:42:00,
2013-11-04 15:57:00,39.9,23.3,30.52,East,90,2.7,-999.0,51,-99.99,,,0.00,Acu-Link.com,2013-11-04 20:57:00,
2013-11-04 16:12:00,39.7,23.5,30.52,East,90,2.7,-999.0,52,-99.99,,,0.00,Acu-Link.com,2013-11-04 21:12:00,
2013-11-04 16:27:00,39.0,22.9,30.51,East,90,1.7,-999.0,52,-99.99,,,0.00,Acu-Link.com,2013-11-04 21:27:00,
2013-11-04 16:42:00,38.5,24.6,30.51,East,90,2.2,-999.0,57,-99.99,,,0.00,Acu-Link.com,2013-11-04 21:42:00,
2013-11-04 16:57:00,37.9,22.3,30.50,East,90,2.7,-999.0,53,-99.99,,,0.00,Acu-Link.com,2013-11-04 21:57:00,
2013-11-04 17:12:00,37.6,23.3,30.50,ENE,67,2.2,-999.0,56,-99.99,,,0.00,Acu-Link.com,2013-11-04 22:12:00,
2013-11-04 17:27:00,37.4,22.7,30.49,East,90,3.7,-999.0,55,-99.99,,,0.00,Acu-Link.com,2013-11-04 22:27:00,
2013-11-04 17:43:00,37.4,22.3,30.50,ENE,67,1.7,-999.0,54,-99.99,,,0.00,Acu-Link.com,2013-11-04 22:43:00,
2013-11-04 17:58:00,36.7,24.1,30.49,East,90,2.2,-999.0,60,-99.99,,,0.00,Acu-Link.com,2013-11-04 22:58:00,
2013-11-04 18:13:00,36.7,23.7,30.49,East,90,5.3,-999.0,59,-99.99,,,0.00,Acu-Link.com,2013-11-04 23:13:00,
2013-11-04 18:28:00,37.0,24.8,30.47,NE,45,6.3,-999.0,61,-99.99,,,0.00,Acu-Link.com,2013-11-04 23:28:00,
2013-11-04 18:43:00,37.0,23.6,30.49,East,90,4.2,-999.0,58,-99.99,,,0.00,Acu-Link.com,2013-11-04 23:43:00,
2013-11-04 18:58:00,36.7,23.7,30.48,ESE,112,4.7,-999.0,59,-99.99,,,0.00,Acu-Link.com,2013-11-04 23:58:00,
2013-11-04 19:13:00,35.6,23.9,30.48,SSE,157,0.0,-999.0,62,-99.99,,,0.00,Acu-Link.com,2013-11-05 00:13:00,
2013-11-04 19:28:00,34.5,24.3,30.48,NNE,22,0.0,-999.0,66,-99.99,,,0.00,Acu-Link.com,2013-11-05 00:28:00,
2013-11-04 19:44:00,34.3,25.6,30.48,East,90,1.1,-999.0,70,-99.99,,,0.00,Acu-Link.com,2013-11-05 00:44:00,
2013-11-04 19:59:00,34.3,24.9,30.48,WSW,247,1.7,-999.0,68,-99.99,,,0.00,Acu-Link.com,2013-11-05 00:59:00,
2013-11-04 20:14:00,34.9,24.7,30.47,SSE,157,0.0,-999.0,66,-99.99,,,0.00,Acu-Link.com,2013-11-05 01:14:00,
2013-11-04 20:29:00,35.1,28.3,30.47,SSW,202,1.7,-999.0,76,-99.99,,,0.00,Acu-Link.com,2013-11-05 01:29:00,
2013-11-04 20:45:00,35.8,24.8,30.47,West,270,1.7,-999.0,64,-99.99,,,0.00,Acu-Link.com,2013-11-05 01:45:00,
2013-11-04 21:00:00,36.5,24.3,30.47,SSE,157,1.7,-999.0,61,-99.99,,,0.00,Acu-Link.com,2013-11-05 02:00:00,
2013-11-04 21:15:00,38.3,23.6,30.45,East,90,2.2,-999.0,55,-99.99,,,0.00,Acu-Link.com,2013-11-05 02:15:00,
2013-11-04 21:30:00,39.2,24.4,30.45,East,90,7.3,-999.0,55,-99.99,,,0.00,Acu-Link.com,2013-11-05 02:30:00,
2013-11-04 21:45:00,39.4,25.0,30.45,WNW,292,2.2,-999.0,56,-99.99,,,0.00,Acu-Link.com,2013-11-05 02:45:00,
2013-11-04 22:00:00,39.4,24.6,30.45,ESE,112,3.7,-999.0,55,-99.99,,,0.00,Acu-Link.com,2013-11-05 03:00:00,
2013-11-04 22:15:00,39.2,25.3,30.44,ESE,112,4.2,-999.0,57,-99.99,,,0.00,Acu-Link.com,2013-11-05 03:15:00,
2013-11-04 22:30:00,39.2,24.0,30.43,SSE,157,4.2,-999.0,54,-99.99,,,0.00,Acu-Link.com,2013-11-05 03:30:00,
2013-11-04 22:46:00,38.8,23.2,30.44,WSW,247,3.7,-999.0,53,-99.99,,,0.00,Acu-Link.com,2013-11-05 03:46:00,
2013-11-04 23:01:00,38.3,22.2,30.46,SE,135,3.7,-999.0,52,-99.99,,,0.00,Acu-Link.com,2013-11-05 04:01:00,
2013-11-04 23:16:00,38.1,22.1,30.45,NE,45,6.3,-999.0,52,-99.99,,,0.00,Acu-Link.com,2013-11-05 04:16:00,
2013-11-04 23:31:00,37.9,21.4,30.44,SE,135,2.2,-999.0,51,-99.99,,,0.00,Acu-Link.com,2013-11-05 04:31:00,
2013-11-04 23:46:00,37.4,21.4,30.45,SSW,202,2.2,-999.0,52,-99.99,,,0.00,Acu-Link.com,2013-11-05 04:46:00,